Time;durP1;ratioP1;P1;durP2;ratioP2;P2;SDS_P1;SDS_P2;PMS_P1;PMS_P2;Temp;Humidity;BMP_temperature;BMP_pressure;BME280_temperature;BME280_humidity;BME280_pressure;Samples;Min_cycle;Max_cycle;Signal;HPM_P1;HPM_P2
2022/04/20 00:02:09;;;;;;;30.65;13.27;;;;;;;;;;4991182;28;20454;-65
2022/04/20 00:04:34;;;;;;;29.48;12.07;;;;;;;;;;4989258;28;20325;-65
2022/04/20 00:07:00;;;;;;;29.50;12.50;;;;;;;;;;4989803;28;20394;-65
2022/04/20 00:09:25;;;;;;;34.85;12.18;;;;;;;;;;4990835;28;20425;-65
2022/04/20 00:11:50;;;;;;;30.08;12.52;;;;;;;;;;4989671;28;20387;-66
2022/04/20 00:14:16;;;;;;;34.65;13.77;;;;;;;;;;4990058;28;20478;-65
2022/04/20 00:16:41;;;;;;;28.98;13.05;;;;;;;;;;4989372;28;20072;-65
2022/04/20 00:19:06;;;;;;;30.80;12.77;;;;;;;;;;4989458;28;20318;-65
2022/04/20 00:21:32;;;;;;;28.98;12.32;;;;;;;;;;4989430;28;20064;-65
2022/04/20 00:23:57;;;;;;;27.50;12.25;;;;;;;;;;4991389;28;20111;-65
2022/04/20 00:26:22;;;;;;;25.65;12.13;;;;;;;;;;4990742;28;20340;-65
2022/04/20 00:28:48;;;;;;;29.25;12.93;;;;;;;;;;4989780;28;20321;-65
2022/04/20 00:31:13;;;;;;;34.45;12.98;;;;;;;;;;4989351;28;20474;-65
2022/04/20 00:33:38;;;;;;;25.90;12.70;;;;;;;;;;4989615;28;20375;-65
2022/04/20 00:36:04;;;;;;;27.35;12.35;;;;;;;;;;4988773;28;20055;-65
2022/04/20 00:38:30;;;;;;;32.20;12.93;;;;;;;;;;4989419;28;20515;-66
2022/04/20 00:40:55;;;;;;;28.65;13.45;;;;;;;;;;4988976;28;20487;-65
2022/04/20 00:43:21;;;;;;;30.45;12.15;;;;;;;;;;4989768;28;20320;-65
2022/04/20 00:45:46;;;;;;;28.95;12.45;;;;;;;;;;4989021;28;20336;-65
2022/04/20 00:48:12;;;;;;;27.58;10.93;;;;;;;;;;4970910;28;20352;-65
2022/04/20 00:50:44;;;;;;;28.65;12.00;;;;;;;;;;4989103;28;20412;-66
2022/04/20 00:53:09;;;;;;;27.02;12.90;;;;;;;;;;4989368;28;20063;-65
2022/04/20 00:55:34;;;;;;;30.55;12.38;;;;;;;;;;4989004;28;20578;-66
2022/04/20 00:58:00;;;;;;;30.17;13.90;;;;;;;;;;4989225;28;20480;-66
2022/04/20 01:00:27;;;;;;;33.20;12.57;;;;;;;;;;4987170;28;20448;-65
2022/04/20 01:02:53;;;;;;;30.08;13.00;;;;;;;;;;4988785;28;20345;-66
2022/04/20 01:05:19;;;;;;;28.08;11.95;;;;;;;;;;4988865;28;20445;-65
2022/04/20 01:07:45;;;;;;;30.30;12.77;;;;;;;;;;4989193;28;20487;-66
2022/04/20 01:10:11;;;;;;;30.55;13.57;;;;;;;;;;4988772;28;20331;-66
2022/04/20 01:12:37;;;;;;;31.60;12.48;;;;;;;;;;4989294;28;20443;-66
2022/04/20 01:15:03;;;;;;;33.60;13.35;;;;;;;;;;4988990;28;20494;-65
2022/04/20 01:17:28;;;;;;;35.40;12.75;;;;;;;;;;4988889;28;20321;-66
2022/04/20 01:19:53;;;;;;;32.95;11.57;;;;;;;;;;4988584;28;20055;-66
2022/04/20 01:22:19;;;;;;;30.52;13.20;;;;;;;;;;4971356;28;20383;-65
2022/04/20 01:24:45;;;;;;;33.75;12.55;;;;;;;;;;4989541;28;20413;-65
2022/04/20 01:27:11;;;;;;;30.67;13.73;;;;;;;;;;4989564;28;20375;-65
2022/04/20 01:29:36;;;;;;;24.70;11.93;;;;;;;;;;4988891;28;20088;-67
2022/04/20 01:32:02;;;;;;;30.85;12.77;;;;;;;;;;4988760;28;20472;-65
2022/04/20 01:34:27;;;;;;;25.75;11.25;;;;;;;;;;4989229;28;20033;-65
2022/04/20 01:36:52;;;;;;;25.98;11.23;;;;;;;;;;4988706;28;20451;-66
2022/04/20 01:39:18;;;;;;;29.50;11.40;;;;;;;;;;4988411;28;20432;-65
2022/04/20 01:41:44;;;;;;;23.35;10.88;;;;;;;;;;4988597;28;20427;-65
2022/04/20 01:44:10;;;;;;;30.13;12.10;;;;;;;;;;4989698;28;20360;-65
2022/04/20 01:46:35;;;;;;;30.02;12.65;;;;;;;;;;4989095;28;20490;-66
2022/04/20 01:49:01;;;;;;;27.80;12.45;;;;;;;;;;4992373;28;20356;-66
2022/04/20 01:54:11;;;;;;;31.30;12.43;;;;;;;;;;4993218;28;20383;-66
2022/04/20 01:56:36;;;;;;;25.48;11.38;;;;;;;;;;4992268;28;20363;-65
2022/04/20 01:59:02;;;;;;;31.50;13.57;;;;;;;;;;4994391;28;20340;-66
2022/04/20 02:04:11;;;;;;;30.48;12.18;;;;;;;;;;4992038;28;20356;-65
2022/04/20 02:06:37;;;;;;;29.13;12.73;;;;;;;;;;4991457;28;20408;-65
2022/04/20 02:09:02;;;;;;;31.02;12.10;;;;;;;;;;4992759;28;20440;-66
2022/04/20 02:11:28;;;;;;;29.77;11.77;;;;;;;;;;4991617;28;20325;-65
2022/04/20 02:13:53;;;;;;;30.85;12.68;;;;;;;;;;4991943;28;20321;-65
2022/04/20 02:16:18;;;;;;;25.90;12.15;;;;;;;;;;4991875;28;20473;-66
2022/04/20 02:18:44;;;;;;;30.10;12.05;;;;;;;;;;4993281;28;20420;-65
2022/04/20 02:21:09;;;;;;;27.00;12.18;;;;;;;;;;4991836;28;20459;-66
2022/04/20 02:23:34;;;;;;;30.60;12.57;;;;;;;;;;4992178;28;20559;-65
2022/04/20 02:26:00;;;;;;;34.15;11.65;;;;;;;;;;4991495;28;20531;-66
2022/04/20 02:28:25;;;;;;;30.90;12.05;;;;;;;;;;4991548;28;20370;-66
2022/04/20 02:30:50;;;;;;;35.25;12.63;;;;;;;;;;4973279;28;20517;-66
2022/04/20 02:33:16;;;;;;;27.50;11.52;;;;;;;;;;4991455;28;20444;-66
2022/04/20 02:35:41;;;;;;;30.98;12.45;;;;;;;;;;4991920;28;20505;-66
2022/04/20 02:38:15;;;;;;;39.33;12.90;;;;;;;;;;4991819;28;20467;-66
2022/04/20 02:40:41;;;;;;;33.33;14.15;;;;;;;;;;4991619;28;20060;-66
2022/04/20 02:43:07;;;;;;;34.85;12.65;;;;;;;;;;4991317;28;20475;-66
2022/04/20 02:45:33;;;;;;;26.73;11.95;;;;;;;;;;4991948;28;20387;-66
2022/04/20 02:47:59;;;;;;;33.80;12.40;;;;;;;;;;4991560;28;20419;-66
2022/04/20 02:50:25;;;;;;;34.85;12.95;;;;;;;;;;4991625;28;20471;-65
2022/04/20 02:52:50;;;;;;;32.90;12.45;;;;;;;;;;4991230;28;20361;-66
2022/04/20 02:55:15;;;;;;;29.85;13.00;;;;;;;;;;4991338;28;20471;-66
2022/04/20 02:57:41;;;;;;;29.70;12.18;;;;;;;;;;4990898;28;20087;-65
2022/04/20 03:00:07;;;;;;;32.17;12.88;;;;;;;;;;4992314;28;20471;-66
2022/04/20 03:02:32;;;;;;;31.98;13.73;;;;;;;;;;4991113;28;20037;-66
2022/04/20 03:04:57;;;;;;;35.88;12.55;;;;;;;;;;4991058;28;20502;-66
2022/04/20 03:07:23;;;;;;;27.58;12.02;;;;;;;;;;4991470;28;20404;-66
2022/04/20 03:09:48;;;;;;;27.17;11.77;;;;;;;;;;4991590;28;20402;-65
2022/04/20 03:12:13;;;;;;;27.25;11.88;;;;;;;;;;4990858;28;20482;-66
2022/04/20 03:14:39;;;;;;;32.97;13.20;;;;;;;;;;4990587;28;20368;-65
2022/04/20 03:17:04;;;;;;;28.20;12.57;;;;;;;;;;4972675;28;20451;-65
2022/04/20 03:19:29;;;;;;;31.55;12.25;;;;;;;;;;4992370;28;20056;-65
2022/04/20 03:21:55;;;;;;;32.50;12.50;;;;;;;;;;4972805;28;20451;-65
2022/04/20 03:24:21;;;;;;;33.00;13.05;;;;;;;;;;4990856;28;20471;-65
2022/04/20 03:26:46;;;;;;;34.97;13.05;;;;;;;;;;4990216;28;20029;-66
2022/04/20 03:29:11;;;;;;;34.85;12.77;;;;;;;;;;4991466;28;20436;-65
2022/04/20 03:31:38;;;;;;;35.00;13.23;;;;;;;;;;4991647;28;20451;-66
2022/04/20 03:34:04;;;;;;;30.38;12.77;;;;;;;;;;4973067;28;20533;-65
2022/04/20 03:36:30;;;;;;;34.42;13.15;;;;;;;;;;4990184;28;20499;-66
2022/04/20 03:38:55;;;;;;;32.95;12.88;;;;;;;;;;4990833;28;20462;-65
2022/04/20 03:41:22;;;;;;;29.77;13.18;;;;;;;;;;4990497;28;20360;-65
2022/04/20 03:43:48;;;;;;;30.30;12.15;;;;;;;;;;4990131;28;20452;-65
2022/04/20 03:46:13;;;;;;;31.30;11.77;;;;;;;;;;4990138;28;20498;-65
2022/04/20 03:48:40;;;;;;;33.28;11.57;;;;;;;;;;4990621;28;20452;-65
2022/04/20 03:51:05;;;;;;;34.85;12.48;;;;;;;;;;4989638;28;20328;-66
2022/04/20 03:53:31;;;;;;;29.33;12.30;;;;;;;;;;4991030;28;20325;-65
2022/04/20 03:55:56;;;;;;;37.42;12.70;;;;;;;;;;4989793;28;20028;-65
2022/04/20 03:58:21;;;;;;;32.03;13.15;;;;;;;;;;4990010;28;20576;-65
2022/04/20 04:00:47;;;;;;;28.17;11.68;;;;;;;;;;4990439;28;20363;-66
2022/04/20 04:03:12;;;;;;;33.55;12.68;;;;;;;;;;4990247;28;20379;-66
2022/04/20 04:05:37;;;;;;;37.35;13.20;;;;;;;;;;4989593;28;20428;-65
2022/04/20 04:08:03;;;;;;;34.85;14.90;;;;;;;;;;4991320;28;20304;-65
2022/04/20 04:10:28;;;;;;;33.72;12.30;;;;;;;;;;4989591;28;20363;-66
2022/04/20 04:12:55;;;;;;;32.00;13.20;;;;;;;;;;4990050;28;20470;-65
2022/04/20 04:15:20;;;;;;;36.33;13.48;;;;;;;;;;4989703;28;20057;-66
2022/04/20 04:17:48;;;;;;;38.17;12.45;;;;;;;;;;4971483;28;20124;-65
2022/04/20 04:20:14;;;;;;;28.25;12.40;;;;;;;;;;4989668;28;20318;-66
2022/04/20 04:22:39;;;;;;;38.58;13.88;;;;;;;;;;4989473;28;20059;-66
2022/04/20 04:25:05;;;;;;;35.95;11.95;;;;;;;;;;4989556;28;20370;-65
2022/04/20 04:27:30;;;;;;;37.20;12.80;;;;;;;;;;4989839;28;20351;-66
2022/04/20 04:29:56;;;;;;;29.02;11.93;;;;;;;;;;4989431;28;20371;-65
2022/04/20 04:32:22;;;;;;;28.08;11.90;;;;;;;;;;4989366;28;20356;-65
2022/04/20 04:34:47;;;;;;;38.97;12.52;;;;;;;;;;4989447;28;20068;-65
2022/04/20 04:37:14;;;;;;;36.97;13.32;;;;;;;;;;4989400;28;20511;-66
2022/04/20 04:39:39;;;;;;;30.38;11.90;;;;;;;;;;4989220;28;20021;-66
2022/04/20 04:42:05;;;;;;;30.92;11.35;;;;;;;;;;4989641;28;20052;-66
2022/04/20 04:44:32;;;;;;;29.55;12.10;;;;;;;;;;4989361;28;20574;-66
2022/04/20 04:49:41;;;;;;;33.95;11.77;;;;;;;;;;4991604;28;20411;-65
2022/04/20 04:52:11;;;;;;;29.85;12.75;;;;;;;;;;4989718;28;20076;-65
2022/04/20 04:54:37;;;;;;;31.75;12.20;;;;;;;;;;4988905;28;20029;-65
2022/04/20 04:57:02;;;;;;;33.25;13.35;;;;;;;;;;4989428;28;20366;-64
2022/04/20 04:59:28;;;;;;;37.92;12.50;;;;;;;;;;4988866;28;20325;-66
2022/04/20 05:01:53;;;;;;;29.05;12.07;;;;;;;;;;4988792;28;20390;-65
2022/04/20 05:04:19;;;;;;;31.13;12.00;;;;;;;;;;4989962;28;20107;-65
2022/04/20 05:06:44;;;;;;;27.75;10.18;;;;;;;;;;4988690;28;20440;-65
2022/04/20 05:09:10;;;;;;;25.90;12.23;;;;;;;;;;4989582;28;20479;-66
2022/04/20 05:11:35;;;;;;;34.70;11.95;;;;;;;;;;4989661;28;20366;-66
2022/04/20 05:14:01;;;;;;;27.70;10.75;;;;;;;;;;4989482;28;20405;-66
2022/04/20 05:16:26;;;;;;;28.73;12.23;;;;;;;;;;4988852;28;20460;-65
2022/04/20 05:18:52;;;;;;;31.80;12.02;;;;;;;;;;4970918;28;20435;-66
2022/04/20 05:21:18;;;;;;;24.50;12.50;;;;;;;;;;4989610;28;20409;-65
2022/04/20 05:23:43;;;;;;;30.38;12.38;;;;;;;;;;4993125;28;20424;-65
2022/04/20 05:26:08;;;;;;;37.28;12.80;;;;;;;;;;4992562;28;20340;-66
2022/04/20 05:28:34;;;;;;;32.28;12.82;;;;;;;;;;4993456;28;20383;-66
2022/04/20 05:30:59;;;;;;;32.78;13.25;;;;;;;;;;4992701;28;20458;-65
2022/04/20 05:33:24;;;;;;;28.60;11.38;;;;;;;;;;4992351;28;20570;-66
2022/04/20 05:35:50;;;;;;;29.52;11.75;;;;;;;;;;4992879;28;20390;-66
2022/04/20 05:43:43;;;;;;;28.13;12.40;;;;;;;;;;4992478;28;20133;-66
2022/04/20 05:46:09;;;;;;;32.33;12.82;;;;;;;;;;4993271;28;20100;-66
2022/04/20 05:48:35;;;;;;;28.15;12.70;;;;;;;;;;4992339;28;20540;-66
2022/04/20 05:51:00;;;;;;;27.20;12.70;;;;;;;;;;4992998;28;20459;-65
2022/04/20 05:53:26;;;;;;;27.23;12.40;;;;;;;;;;4992260;28;20021;-65
2022/04/20 05:55:52;;;;;;;32.50;12.88;;;;;;;;;;4992757;28;20408;-66
2022/04/20 05:58:17;;;;;;;32.72;13.18;;;;;;;;;;4992279;28;20432;-66
2022/04/20 06:00:42;;;;;;;28.75;11.75;;;;;;;;;;4993755;28;20087;-65
2022/04/20 06:03:07;;;;;;;31.02;12.65;;;;;;;;;;4992203;28;20470;-66
2022/04/20 06:05:33;;;;;;;30.83;12.98;;;;;;;;;;4991590;28;20456;-66
2022/04/20 06:07:58;;;;;;;28.30;12.93;;;;;;;;;;4974257;28;20476;-66
2022/04/20 06:10:24;;;;;;;32.47;12.52;;;;;;;;;;4992154;28;20333;-66
2022/04/20 06:12:50;;;;;;;25.92;12.30;;;;;;;;;;4992334;28;20032;-66
2022/04/20 06:15:15;;;;;;;28.35;13.18;;;;;;;;;;4992033;28;20029;-66
2022/04/20 06:17:41;;;;;;;25.52;12.68;;;;;;;;;;4992946;28;20444;-65
2022/04/20 06:20:07;;;;;;;27.67;11.40;;;;;;;;;;4991496;28;20044;-66
2022/04/20 06:22:32;;;;;;;28.73;12.93;;;;;;;;;;4992027;28;20355;-66
2022/04/20 06:24:57;;;;;;;29.52;12.85;;;;;;;;;;4991903;28;20025;-66
2022/04/20 06:27:30;;;;;;;29.38;12.93;;;;;;;;;;4992061;28;20448;-65
2022/04/20 06:29:56;;;;;;;29.17;14.00;;;;;;;;;;4992094;28;20090;-65
2022/04/20 06:32:23;;;;;;;27.73;12.98;;;;;;;;;;4991855;28;20371;-65
2022/04/20 06:34:49;;;;;;;33.65;13.13;;;;;;;;;;4991632;28;20331;-66
2022/04/20 06:37:14;;;;;;;28.52;13.10;;;;;;;;;;4991606;28;20025;-65
2022/04/20 06:39:40;;;;;;;27.40;12.68;;;;;;;;;;4991646;28;20436;-65
2022/04/20 06:42:07;;;;;;;27.20;12.40;;;;;;;;;;4992311;28;20527;-66
2022/04/20 06:44:32;;;;;;;28.85;12.82;;;;;;;;;;4991920;28;20033;-66
2022/04/20 06:46:58;;;;;;;31.30;13.45;;;;;;;;;;4991401;28;20461;-66
2022/04/20 06:49:23;;;;;;;28.35;12.88;;;;;;;;;;4991867;28;20071;-66
2022/04/20 07:00:00;;;;;;;28.02;12.23;;;;;;;;;;4991664;28;20463;-65
2022/04/20 07:02:25;;;;;;;25.85;11.35;;;;;;;;;;4991173;28;20455;-66
2022/04/20 07:04:51;;;;;;;29.85;12.52;;;;;;;;;;4990613;28;20452;-66
2022/04/20 07:07:16;;;;;;;30.05;13.43;;;;;;;;;;4992040;28;20037;-65
2022/04/20 07:09:42;;;;;;;35.38;12.95;;;;;;;;;;4990714;28;20051;-66
2022/04/20 07:12:07;;;;;;;28.25;14.35;;;;;;;;;;4991105;28;20455;-66
2022/04/20 07:14:33;;;;;;;31.00;13.95;;;;;;;;;;4990768;28;20107;-66
2022/04/20 07:16:59;;;;;;;28.40;13.95;;;;;;;;;;4990652;28;20078;-66
2022/04/20 07:19:24;;;;;;;34.28;13.07;;;;;;;;;;4991405;28;20349;-65
2022/04/20 07:21:49;;;;;;;32.72;13.35;;;;;;;;;;4991217;28;20410;-66
2022/04/20 07:24:14;;;;;;;28.75;14.07;;;;;;;;;;4990701;28;20440;-66
2022/04/20 07:26:40;;;;;;;32.92;14.52;;;;;;;;;;4991097;28;20095;-66
2022/04/20 07:29:05;;;;;;;29.02;13.00;;;;;;;;;;4990797;28;20315;-66
2022/04/20 07:31:30;;;;;;;27.05;14.77;;;;;;;;;;4990425;28;20427;-67
2022/04/20 07:33:56;;;;;;;34.40;15.82;;;;;;;;;;4990799;28;20317;-65
2022/04/20 07:36:21;;;;;;;30.13;13.98;;;;;;;;;;4990706;28;20486;-66
2022/04/20 07:38:48;;;;;;;29.95;15.25;;;;;;;;;;4990796;28;20025;-66
2022/04/20 07:41:14;;;;;;;34.10;15.85;;;;;;;;;;4990307;28;20055;-66
2022/04/20 07:43:39;;;;;;;28.42;13.32;;;;;;;;;;4972228;28;20436;-67
2022/04/20 07:46:05;;;;;;;34.30;14.48;;;;;;;;;;4989558;28;20419;-66
2022/04/20 07:48:30;;;;;;;36.45;15.55;;;;;;;;;;4990546;28;20483;-65
2022/04/20 07:50:55;;;;;;;30.77;14.30;;;;;;;;;;4990751;28;20051;-66
2022/04/20 07:53:21;;;;;;;28.23;14.00;;;;;;;;;;4990227;28;20491;-66
2022/04/20 07:55:46;;;;;;;33.28;15.35;;;;;;;;;;4991471;28;20382;-66
2022/04/20 07:58:12;;;;;;;35.97;15.35;;;;;;;;;;4990712;28;20498;-66
2022/04/20 08:00:38;;;;;;;33.15;14.95;;;;;;;;;;4990248;28;20455;-66
2022/04/20 08:03:21;;;;;;;37.17;14.30;;;;;;;;;;4989615;28;20090;-66
2022/04/20 08:05:54;;;;;;;30.92;15.05;;;;;;;;;;4989531;28;20452;-67
2022/04/20 08:08:20;;;;;;;35.13;14.98;;;;;;;;;;4990389;28;20424;-66
2022/04/20 08:10:46;;;;;;;28.88;15.20;;;;;;;;;;4989791;28;20025;-66
2022/04/20 08:15:56;;;;;;;37.50;15.35;;;;;;;;;;4990065;28;20500;-66
2022/04/20 08:18:21;;;;;;;31.63;15.38;;;;;;;;;;4972308;28;20467;-66
2022/04/20 08:20:47;;;;;;;39.83;15.05;;;;;;;;;;4989235;28;20427;-66
2022/04/20 08:23:13;;;;;;;33.15;15.18;;;;;;;;;;4971940;28;20468;-65
2022/04/20 08:25:41;;;;;;;33.45;15.52;;;;;;;;;;4989341;28;20430;-66
2022/04/20 08:28:07;;;;;;;36.10;16.92;;;;;;;;;;4989456;28;20340;-66
2022/04/20 08:30:34;;;;;;;30.67;14.52;;;;;;;;;;4989180;28;20029;-66
2022/04/20 08:32:59;;;;;;;41.78;15.60;;;;;;;;;;4990454;28;20381;-66
2022/04/20 08:35:25;;;;;;;34.72;15.85;;;;;;;;;;4990860;28;20358;-66
2022/04/20 08:37:50;;;;;;;33.60;16.05;;;;;;;;;;4989560;28;20051;-66
2022/04/20 08:40:15;;;;;;;38.78;14.85;;;;;;;;;;4990158;28;20329;-66
2022/04/20 08:42:41;;;;;;;38.72;16.63;;;;;;;;;;4988842;28;20021;-66
2022/04/20 08:45:07;;;;;;;36.28;15.70;;;;;;;;;;4989201;28;20366;-66
2022/04/20 08:47:37;;;;;;;37.00;16.08;;;;;;;;;;4989143;28;20025;-66
2022/04/20 08:50:05;;;;;;;31.40;15.52;;;;;;;;;;4989323;28;20386;-66
2022/04/20 08:52:46;;;;;;;31.00;14.55;;;;;;;;;;4989930;28;20052;-66
2022/04/20 08:55:13;;;;;;;30.73;16.33;;;;;;;;;;4988658;28;20056;-66
2022/04/20 08:57:40;;;;;;;36.83;15.52;;;;;;;;;;4988824;28;20025;-66
2022/04/20 09:00:08;;;;;;;32.65;15.60;;;;;;;;;;4988758;28;20364;-67
2022/04/20 09:02:34;;;;;;;35.58;16.85;;;;;;;;;;4989395;28;20072;-66
2022/04/20 09:04:59;;;;;;;36.90;16.55;;;;;;;;;;4988279;28;20488;-66
2022/04/20 09:07:25;;;;;;;29.77;15.27;;;;;;;;;;4970595;28;20459;-66
2022/04/20 09:09:51;;;;;;;33.22;15.65;;;;;;;;;;4988731;28;20352;-67
2022/04/20 09:12:18;;;;;;;37.05;17.05;;;;;;;;;;4989483;28;20029;-66
2022/04/20 09:14:48;;;;;;;36.10;15.98;;;;;;;;;;4989161;28;20128;-66
2022/04/20 09:17:16;;;;;;;37.70;17.90;;;;;;;;;;4989605;28;20405;-66
2022/04/20 09:19:41;;;;;;;35.30;15.90;;;;;;;;;;4989709;28;20494;-66
2022/04/20 09:22:27;;;;;;;43.08;16.85;;;;;;;;;;4971213;28;20452;-66
2022/04/20 09:24:57;;;;;;;35.40;16.83;;;;;;;;;;4988323;28;20423;-66
2022/04/20 09:27:23;;;;;;;35.13;16.67;;;;;;;;;;4988549;28;20432;-66
2022/04/20 09:29:55;;;;;;;36.47;17.35;;;;;;;;;;4989337;28;20436;-66
2022/04/20 09:32:37;;;;;;;37.47;17.65;;;;;;;;;;4989430;28;20423;-67
2022/04/20 09:35:08;;;;;;;38.53;17.15;;;;;;;;;;4988541;28;20348;-66
2022/04/20 09:37:35;;;;;;;40.30;17.05;;;;;;;;;;4988892;28;20033;-66
2022/04/20 09:40:01;;;;;;;38.38;17.77;;;;;;;;;;4988379;28;20444;-66
2022/04/20 09:42:27;;;;;;;33.85;17.83;;;;;;;;;;4988702;28;20482;-67
2022/04/20 09:44:57;;;;;;;28.33;16.60;;;;;;;;;;4971709;28;20448;-66
2022/04/20 09:50:26;;;;;;;36.45;16.55;;;;;;;;;;4974385;28;20456;-66
2022/04/20 09:52:55;;;;;;;36.95;17.10;;;;;;;;;;4988437;28;20413;-66
2022/04/20 09:55:30;;;;;;;32.22;15.88;;;;;;;;;;4988373;28;20029;-66
2022/04/20 09:58:24;;;;;;;30.48;15.95;;;;;;;;;;4988929;28;20425;-66
2022/04/20 10:00:51;;;;;;;31.60;16.42;;;;;;;;;;4986361;28;20514;-66
2022/04/20 10:03:27;;;;;;;34.05;16.50;;;;;;;;;;4990456;28;20328;-66
2022/04/20 10:05:53;;;;;;;34.25;17.17;;;;;;;;;;4987616;28;20427;-67
2022/04/20 10:08:19;;;;;;;34.42;16.35;;;;;;;;;;4989051;28;20331;-66
2022/04/20 10:10:47;;;;;;;33.13;14.80;;;;;;;;;;4991632;28;20029;-66
2022/04/20 10:13:13;;;;;;;33.72;16.67;;;;;;;;;;4993112;28;20330;-67
2022/04/20 10:18:25;;;;;;;30.02;15.20;;;;;;;;;;4977839;28;20055;-66
2022/04/20 10:20:55;;;;;;;31.60;15.27;;;;;;;;;;4992093;28;20360;-65
2022/04/20 10:23:21;;;;;;;35.05;13.45;;;;;;;;;;4991816;28;20329;-65
2022/04/20 10:25:49;;;;;;;31.70;15.27;;;;;;;;;;4991766;28;20467;-66
2022/04/20 10:28:33;;;;;;;29.52;13.80;;;;;;;;;;4992131;28;20037;-67
2022/04/20 10:31:20;;;;;;;29.02;13.02;;;;;;;;;;4973808;28;20021;-66
2022/04/20 10:33:46;;;;;;;32.67;14.07;;;;;;;;;;4973668;28;20397;-66
2022/04/20 10:36:15;;;;;;;26.98;14.13;;;;;;;;;;4992340;28;20443;-66
2022/04/20 10:38:43;;;;;;;27.45;13.02;;;;;;;;;;4992306;28;20352;-66
2022/04/20 10:41:10;;;;;;;28.98;14.13;;;;;;;;;;4991508;28;20423;-66
2022/04/20 10:43:41;;;;;;;28.00;13.57;;;;;;;;;;4993619;28;20436;-64
2022/04/20 10:46:07;;;;;;;28.20;12.98;;;;;;;;;;4991987;28;20503;-66
2022/04/20 10:48:49;;;;;;;25.70;12.85;;;;;;;;;;4991596;28;20033;-66
2022/04/20 10:51:34;;;;;;;27.85;13.32;;;;;;;;;;4991021;28;20429;-66
2022/04/20 10:54:27;;;;;;;25.73;13.00;;;;;;;;;;4991424;28;20033;-66
2022/04/20 10:56:59;;;;;;;25.65;12.77;;;;;;;;;;4991320;28;20139;-66
2022/04/20 10:59:24;;;;;;;23.67;12.30;;;;;;;;;;4991412;28;20411;-66
2022/04/20 11:01:58;;;;;;;27.58;13.15;;;;;;;;;;4991395;28;20418;-66
2022/04/20 11:04:44;;;;;;;23.90;12.18;;;;;;;;;;4990820;28;20052;-66
2022/04/20 11:07:09;;;;;;;21.63;12.13;;;;;;;;;;4971074;28;20093;-65
2022/04/20 11:09:48;;;;;;;29.90;12.68;;;;;;;;;;4971164;28;20108;-66
2022/04/20 11:18:39;;;;;;;23.77;11.65;;;;;;;;;;4891636;29;20592;-66
2022/04/20 11:21:07;;;;;;;22.60;12.48;;;;;;;;;;4959308;28;20391;-66
2022/04/20 11:23:52;;;;;;;28.35;12.65;;;;;;;;;;4972542;28;20467;-66
2022/04/20 11:26:24;;;;;;;19.02;11.27;;;;;;;;;;4970771;28;20403;-66
2022/04/20 11:28:50;;;;;;;23.70;12.85;;;;;;;;;;4971369;28;20566;-66
2022/04/20 11:31:17;;;;;;;21.17;11.43;;;;;;;;;;4970693;28;20025;-66
2022/04/20 11:33:42;;;;;;;21.83;11.68;;;;;;;;;;4972051;28;20467;-66
2022/04/20 11:36:12;;;;;;;20.45;10.88;;;;;;;;;;4970710;28;20421;-66
2022/04/20 11:38:40;;;;;;;22.20;11.77;;;;;;;;;;4970692;28;20488;-65
2022/04/20 11:41:05;;;;;;;23.17;12.32;;;;;;;;;;4971730;28;20022;-66
2022/04/20 11:43:31;;;;;;;25.48;12.40;;;;;;;;;;4970411;28;20443;-66
2022/04/20 11:45:56;;;;;;;25.60;12.50;;;;;;;;;;4970805;28;20409;-65
2022/04/20 11:48:22;;;;;;;25.10;12.57;;;;;;;;;;4953347;28;20091;-66
2022/04/20 11:50:56;;;;;;;24.88;12.20;;;;;;;;;;4970229;28;20451;-66
2022/04/20 11:53:22;;;;;;;24.85;12.02;;;;;;;;;;4971616;28;20034;-66
2022/04/20 11:55:47;;;;;;;22.30;12.15;;;;;;;;;;4968490;28;20038;-66
2022/04/20 11:58:15;;;;;;;20.67;11.02;;;;;;;;;;4972657;28;20382;-66
2022/04/20 12:00:41;;;;;;;30.42;11.93;;;;;;;;;;4970028;28;20436;-65
2022/04/20 12:03:07;;;;;;;21.55;11.70;;;;;;;;;;4970341;28;20369;-65
2022/04/20 12:05:32;;;;;;;22.88;11.65;;;;;;;;;;4977837;28;20542;-66
2022/04/20 12:07:57;;;;;;;23.38;11.70;;;;;;;;;;4990093;28;20106;-66
2022/04/20 12:10:23;;;;;;;23.05;10.18;;;;;;;;;;4989795;28;20408;-66
2022/04/20 12:12:49;;;;;;;20.15;10.73;;;;;;;;;;4971778;28;20464;-66
2022/04/20 12:15:14;;;;;;;23.50;12.10;;;;;;;;;;4989623;28;20028;-65
2022/04/20 12:17:41;;;;;;;29.58;11.80;;;;;;;;;;4971524;28;20036;-66
2022/04/20 12:20:07;;;;;;;26.65;11.45;;;;;;;;;;4971727;28;20506;-66
2022/04/20 12:22:33;;;;;;;22.33;10.45;;;;;;;;;;4991304;28;20474;-65
2022/04/20 12:25:06;;;;;;;17.50;10.00;;;;;;;;;;4989588;28;20518;-66
2022/04/20 12:27:52;;;;;;;18.80;9.77;;;;;;;;;;4989479;28;20502;-66
2022/04/20 12:30:37;;;;;;;21.40;11.75;;;;;;;;;;4971854;28;20403;-66
2022/04/20 12:33:04;;;;;;;20.65;9.93;;;;;;;;;;4989405;28;20395;-67
2022/04/20 12:35:30;;;;;;;22.67;10.48;;;;;;;;;;4989212;28;20420;-65
2022/04/20 12:37:56;;;;;;;19.55;10.90;;;;;;;;;;4991380;28;20422;-66
2022/04/20 12:40:26;;;;;;;18.63;9.38;;;;;;;;;;4989698;28;20095;-66
2022/04/20 12:42:58;;;;;;;19.02;9.27;;;;;;;;;;4989131;28;20044;-66
2022/04/20 12:45:24;;;;;;;21.38;11.20;;;;;;;;;;4989771;28;20082;-66
2022/04/20 12:47:49;;;;;;;18.92;10.43;;;;;;;;;;4990347;28;20448;-66
2022/04/20 12:50:16;;;;;;;21.90;10.48;;;;;;;;;;4990012;28;20051;-65
2022/04/20 12:52:49;;;;;;;19.95;9.73;;;;;;;;;;4989212;28;20440;-66
2022/04/20 12:55:15;;;;;;;20.70;10.38;;;;;;;;;;4989055;28;20412;-65
2022/04/20 13:03:35;;;;;;;16.75;9.13;;;;;;;;;;4988953;28;20118;-65
2022/04/20 13:06:01;;;;;;;16.60;8.77;;;;;;;;;;4988300;28;20434;-66
2022/04/20 13:08:26;;;;;;;19.95;10.50;;;;;;;;;;4989023;28;20440;-65
2022/04/20 13:10:52;;;;;;;18.48;9.85;;;;;;;;;;4988909;28;20533;-66
2022/04/20 13:13:23;;;;;;;20.60;9.57;;;;;;;;;;4989111;28;20416;-66
2022/04/20 13:15:48;;;;;;;21.00;9.73;;;;;;;;;;4989194;28;20528;-65
2022/04/20 13:18:13;;;;;;;17.50;9.05;;;;;;;;;;4989078;28;20412;-66
2022/04/20 13:20:39;;;;;;;17.38;9.50;;;;;;;;;;4988584;28;20458;-66
2022/04/20 13:23:05;;;;;;;17.90;9.02;;;;;;;;;;4988842;28;20424;-66
2022/04/20 13:28:14;;;;;;;15.43;8.43;;;;;;;;;;4988824;28;20356;-66
2022/04/20 13:30:40;;;;;;;15.27;8.73;;;;;;;;;;4989227;28;20340;-66
2022/04/20 13:33:07;;;;;;;17.48;8.25;;;;;;;;;;4989190;28;20366;-66
2022/04/20 13:35:33;;;;;;;15.05;8.88;;;;;;;;;;4989026;28;20033;-66
2022/04/20 13:37:59;;;;;;;14.18;7.88;;;;;;;;;;4988577;28;20428;-66
2022/04/20 13:40:25;;;;;;;15.68;7.82;;;;;;;;;;4988536;28;20378;-65
2022/04/20 13:42:51;;;;;;;14.60;8.32;;;;;;;;;;4990271;28;20448;-66
2022/04/20 13:45:16;;;;;;;14.93;8.18;;;;;;;;;;4992517;28;20021;-66
2022/04/20 13:47:41;;;;;;;14.82;8.63;;;;;;;;;;4992456;28;20451;-67
2022/04/20 13:50:08;;;;;;;14.05;7.57;;;;;;;;;;4992278;28;20344;-66
2022/04/20 13:52:34;;;;;;;17.55;8.40;;;;;;;;;;4992355;28;20033;-66
2022/04/20 13:54:59;;;;;;;17.23;7.65;;;;;;;;;;4992017;28;20051;-66
2022/04/20 13:57:26;;;;;;;15.20;8.35;;;;;;;;;;4993644;28;20028;-66
2022/04/20 13:59:51;;;;;;;15.25;8.60;;;;;;;;;;4992349;28;20579;-66
2022/04/20 14:02:17;;;;;;;13.88;8.00;;;;;;;;;;4992765;28;20448;-66
2022/04/20 14:04:42;;;;;;;15.38;8.57;;;;;;;;;;4991715;28;20478;-67
2022/04/20 14:07:08;;;;;;;15.57;8.35;;;;;;;;;;4974619;28;20384;-66
2022/04/20 14:09:34;;;;;;;16.20;7.50;;;;;;;;;;4992099;28;20372;-65
2022/04/20 14:12:00;;;;;;;15.77;8.35;;;;;;;;;;4992003;28;20506;-66
2022/04/20 14:14:26;;;;;;;13.43;7.35;;;;;;;;;;4993058;28;20396;-66
2022/04/20 14:16:52;;;;;;;13.75;7.45;;;;;;;;;;4992314;28;20425;-66
2022/04/20 14:19:17;;;;;;;14.18;7.70;;;;;;;;;;4991902;28;20324;-66
2022/04/20 14:21:43;;;;;;;14.80;8.05;;;;;;;;;;4991525;28;20406;-65
2022/04/20 14:24:09;;;;;;;13.15;7.25;;;;;;;;;;4991881;28;20100;-65
2022/04/20 14:32:21;;;;;;;12.73;6.90;;;;;;;;;;4950029;28;20489;-66
2022/04/20 14:34:50;;;;;;;14.93;7.60;;;;;;;;;;4982596;28;20519;-66
2022/04/20 14:37:18;;;;;;;14.52;7.20;;;;;;;;;;4991963;28;20449;-66
2022/04/20 14:39:44;;;;;;;14.75;7.60;;;;;;;;;;4991876;28;20037;-66
2022/04/20 14:42:11;;;;;;;14.00;7.68;;;;;;;;;;4991931;28;20321;-65
2022/04/20 14:44:36;;;;;;;11.73;7.20;;;;;;;;;;4991717;28;20388;-66
2022/04/20 14:47:11;;;;;;;13.73;7.38;;;;;;;;;;4991293;28;20513;-66
2022/04/20 14:49:38;;;;;;;11.45;6.43;;;;;;;;;;4991189;28;20152;-66
2022/04/20 14:52:08;;;;;;;12.90;7.10;;;;;;;;;;4992809;28;20033;-66
2022/04/20 14:54:37;;;;;;;14.95;6.90;;;;;;;;;;4990505;28;20473;-66
2022/04/20 14:57:03;;;;;;;14.88;7.60;;;;;;;;;;4991415;28;20382;-65
2022/04/20 14:59:28;;;;;;;12.20;7.03;;;;;;;;;;4991314;28;20052;-66
2022/04/20 15:01:54;;;;;;;14.68;7.50;;;;;;;;;;4991325;28;20424;-65
2022/04/20 15:04:20;;;;;;;14.77;6.68;;;;;;;;;;4991336;28;20329;-66
2022/04/20 15:06:50;;;;;;;13.68;7.28;;;;;;;;;;4990687;28;20484;-66
2022/04/20 15:09:16;;;;;;;14.77;7.80;;;;;;;;;;4990885;28;20051;-66